Terminal Aerodrome Forecast
Issued by NWS Missoula, MT

Home | Current Version | Previous Version | Text Only | Print | Product List | Glossary On
Versions: 1 2 3 4 5 6 7 8 9 10 11 12 13 14 15 16 17 18 19 20
210
FTUS45 KMSO 231738
TAFBTM
TAF
KBTM 231738Z 2318/2418 16007KT P6SM VCSH BKN040
     FM232100 16006KT P6SM -SHRA VCTS BKN060CB OVC100
      TEMPO 2321/2324 VRB10G20KT
     FM240000 15005KT P6SM VCSH SCT060 OVC100
     FM240300 16005KT P6SM SCT120=

USA.gov is the U.S. government's official web portal to all federal, state and local government web resources and services.